sensor_id;sensor_type;location;lat;lon;timestamp;temperature;humidity
45014;DHT22;30749;53.052;8.900;2022-08-11T00:01:49;22.60;1.00
45014;DHT22;30749;53.052;8.900;2022-08-11T00:04:15;22.60;1.00
45014;DHT22;30749;53.052;8.900;2022-08-11T00:06:41;22.50;1.00
45014;DHT22;30749;53.052;8.900;2022-08-11T00:09:17;22.60;1.00
45014;DHT22;30749;53.052;8.900;2022-08-11T00:11:44;22.50;1.00
45014;DHT22;30749;53.052;8.900;2022-08-11T00:14:20;22.50;1.00
45014;DHT22;30749;53.052;8.900;2022-08-11T00:16:53;22.40;1.00
45014;DHT22;30749;53.052;8.900;2022-08-11T00:19:20;22.40;1.00
45014;DHT22;30749;53.052;8.900;2022-08-11T00:21:46;22.40;1.00
45014;DHT22;30749;53.052;8.900;2022-08-11T00:24:12;22.40;1.00
45014;DHT22;30749;53.052;8.900;2022-08-11T00:26:37;22.40;1.00
45014;DHT22;30749;53.052;8.900;2022-08-11T00:29:09;22.30;1.00
45014;DHT22;30749;53.052;8.900;2022-08-11T00:31:35;22.30;1.00
45014;DHT22;30749;53.052;8.900;2022-08-11T00:34:02;22.30;1.00
45014;DHT22;30749;53.052;8.900;2022-08-11T00:36:36;22.20;1.00
45014;DHT22;30749;53.052;8.900;2022-08-11T00:39:03;22.20;1.00
45014;DHT22;30749;53.052;8.900;2022-08-11T00:46:36;22.00;1.00
45014;DHT22;30749;53.052;8.900;2022-08-11T00:49:27;22.00;1.00
45014;DHT22;30749;53.052;8.900;2022-08-11T00:51:58;22.00;1.00
45014;DHT22;30749;53.052;8.900;2022-08-11T01:04:35;21.90;1.00
45014;DHT22;30749;53.052;8.900;2022-08-11T01:09:57;21.80;1.00
45014;DHT22;30749;53.052;8.900;2022-08-11T01:18:09;21.60;1.00
45014;DHT22;30749;53.052;8.900;2022-08-11T01:23:28;21.50;1.00
45014;DHT22;30749;53.052;8.900;2022-08-11T01:33:50;21.40;1.00
45014;DHT22;30749;53.052;8.900;2022-08-11T01:36:30;21.40;1.00
45014;DHT22;30749;53.052;8.900;2022-08-11T01:42:16;21.40;1.00
45014;DHT22;30749;53.052;8.900;2022-08-11T01:44:52;21.40;1.00
45014;DHT22;30749;53.052;8.900;2022-08-11T01:47:41;21.40;1.00
45014;DHT22;30749;53.052;8.900;2022-08-11T01:50:22;21.30;1.00
45014;DHT22;30749;53.052;8.900;2022-08-11T01:55:42;21.30;1.00
45014;DHT22;30749;53.052;8.900;2022-08-11T01:58:17;21.30;1.00
45014;DHT22;30749;53.052;8.900;2022-08-11T02:00:47;21.20;1.00
45014;DHT22;30749;53.052;8.900;2022-08-11T02:03:16;21.20;1.00
45014;DHT22;30749;53.052;8.900;2022-08-11T02:10:57;21.10;1.00
45014;DHT22;30749;53.052;8.900;2022-08-11T02:15:55;21.10;1.00
45014;DHT22;30749;53.052;8.900;2022-08-11T02:18:31;21.10;1.00
45014;DHT22;30749;53.052;8.900;2022-08-11T02:20:58;21.10;1.00
45014;DHT22;30749;53.052;8.900;2022-08-11T02:23:28;21.00;1.00
45014;DHT22;30749;53.052;8.900;2022-08-11T02:26:01;21.10;1.00
45014;DHT22;30749;53.052;8.900;2022-08-11T02:28:28;21.00;1.00
45014;DHT22;30749;53.052;8.900;2022-08-11T02:31:10;21.00;1.00
45014;DHT22;30749;53.052;8.900;2022-08-11T02:33:37;21.00;1.00
45014;DHT22;30749;53.052;8.900;2022-08-11T02:36:11;20.90;1.00
45014;DHT22;30749;53.052;8.900;2022-08-11T02:53:00;20.80;1.00
45014;DHT22;30749;53.052;8.900;2022-08-11T02:58:16;20.70;1.00
45014;DHT22;30749;53.052;8.900;2022-08-11T03:00:46;20.70;1.00
45014;DHT22;30749;53.052;8.900;2022-08-11T03:03:21;20.60;1.00
45014;DHT22;30749;53.052;8.900;2022-08-11T03:06:04;20.70;1.00
45014;DHT22;30749;53.052;8.900;2022-08-11T03:08:34;20.60;1.00
45014;DHT22;30749;53.052;8.900;2022-08-11T03:11:06;20.60;1.00
45014;DHT22;30749;53.052;8.900;2022-08-11T03:13:35;20.50;1.00
45014;DHT22;30749;53.052;8.900;2022-08-11T03:16:12;20.50;1.00
45014;DHT22;30749;53.052;8.900;2022-08-11T03:21:28;20.40;1.00
45014;DHT22;30749;53.052;8.900;2022-08-11T03:24:02;20.40;1.00
45014;DHT22;30749;53.052;8.900;2022-08-11T03:26:45;20.40;1.00
45014;DHT22;30749;53.052;8.900;2022-08-11T03:29:17;20.40;1.00
45014;DHT22;30749;53.052;8.900;2022-08-11T03:34:22;20.40;1.00
45014;DHT22;30749;53.052;8.900;2022-08-11T03:39:41;20.30;1.00
45014;DHT22;30749;53.052;8.900;2022-08-11T03:52:36;20.20;1.00
45014;DHT22;30749;53.052;8.900;2022-08-11T04:15:22;20.00;1.00
45014;DHT22;30749;53.052;8.900;2022-08-11T04:23:31;20.00;1.00
45014;DHT22;30749;53.052;8.900;2022-08-11T04:26:05;20.00;1.00
45014;DHT22;30749;53.052;8.900;2022-08-11T04:34:03;20.00;1.00
45014;DHT22;30749;53.052;8.900;2022-08-11T04:36:47;20.00;1.00
45014;DHT22;30749;53.052;8.900;2022-08-11T04:50:14;20.00;1.00
45014;DHT22;30749;53.052;8.900;2022-08-11T04:52:51;20.00;1.00
45014;DHT22;30749;53.052;8.900;2022-08-11T05:03:27;20.10;1.00
45014;DHT22;30749;53.052;8.900;2022-08-11T05:13:44;20.10;1.00
45014;DHT22;30749;53.052;8.900;2022-08-11T05:16:10;20.10;1.00
45014;DHT22;30749;53.052;8.900;2022-08-11T05:18:39;20.10;1.00
45014;DHT22;30749;53.052;8.900;2022-08-11T05:21:10;20.10;1.00
45014;DHT22;30749;53.052;8.900;2022-08-11T05:23:41;20.20;1.00
45014;DHT22;30749;53.052;8.900;2022-08-11T05:26:07;20.20;1.00
45014;DHT22;30749;53.052;8.900;2022-08-11T05:28:45;20.30;1.00
45014;DHT22;30749;53.052;8.900;2022-08-11T05:31:15;20.30;1.00
45014;DHT22;30749;53.052;8.900;2022-08-11T05:33:43;20.30;1.00
45014;DHT22;30749;53.052;8.900;2022-08-11T05:36:11;20.30;1.00
45014;DHT22;30749;53.052;8.900;2022-08-11T05:38:39;20.40;1.00
45014;DHT22;30749;53.052;8.900;2022-08-11T05:41:13;20.40;1.00
45014;DHT22;30749;53.052;8.900;2022-08-11T05:43:39;20.40;1.00
45014;DHT22;30749;53.052;8.900;2022-08-11T05:46:06;20.30;1.00
45014;DHT22;30749;53.052;8.900;2022-08-11T05:48:32;20.30;1.00
45014;DHT22;30749;53.052;8.900;2022-08-11T05:50:58;20.30;1.00
45014;DHT22;30749;53.052;8.900;2022-08-11T05:53:24;20.40;1.00
45014;DHT22;30749;53.052;8.900;2022-08-11T05:55:50;20.40;1.00
45014;DHT22;30749;53.052;8.900;2022-08-11T05:58:16;20.50;1.00
45014;DHT22;30749;53.052;8.900;2022-08-11T06:00:45;20.50;1.00
45014;DHT22;30749;53.052;8.900;2022-08-11T06:03:19;20.60;1.00
45014;DHT22;30749;53.052;8.900;2022-08-11T06:05:46;20.60;1.00
45014;DHT22;30749;53.052;8.900;2022-08-11T06:08:12;20.60;1.00
45014;DHT22;30749;53.052;8.900;2022-08-11T06:10:39;20.60;1.00
45014;DHT22;30749;53.052;8.900;2022-08-11T06:13:05;20.60;1.00
45014;DHT22;30749;53.052;8.900;2022-08-11T06:15:32;20.70;1.00
45014;DHT22;30749;53.052;8.900;2022-08-11T06:17:58;20.80;1.00
45014;DHT22;30749;53.052;8.900;2022-08-11T06:20:24;20.90;1.00
45014;DHT22;30749;53.052;8.900;2022-08-11T06:22:57;20.90;1.00
45014;DHT22;30749;53.052;8.900;2022-08-11T06:25:28;20.90;1.00
45014;DHT22;30749;53.052;8.900;2022-08-11T06:27:54;21.00;1.00
45014;DHT22;30749;53.052;8.900;2022-08-11T06:30:28;21.10;1.00
45014;DHT22;30749;53.052;8.900;2022-08-11T06:32:56;21.10;1.00
45014;DHT22;30749;53.052;8.900;2022-08-11T06:35:24;21.10;1.00
45014;DHT22;30749;53.052;8.900;2022-08-11T06:40:48;21.10;1.00
45014;DHT22;30749;53.052;8.900;2022-08-11T06:43:19;21.20;1.00
45014;DHT22;30749;53.052;8.900;2022-08-11T06:48:14;21.40;1.00
45014;DHT22;30749;53.052;8.900;2022-08-11T06:50:40;21.40;1.00
45014;DHT22;30749;53.052;8.900;2022-08-11T06:53:11;21.40;1.00
45014;DHT22;30749;53.052;8.900;2022-08-11T06:55:40;21.60;1.00
45014;DHT22;30749;53.052;8.900;2022-08-11T06:58:11;21.70;1.00
45014;DHT22;30749;53.052;8.900;2022-08-11T07:00:37;21.60;1.00
45014;DHT22;30749;53.052;8.900;2022-08-11T07:03:06;21.60;1.00
45014;DHT22;30749;53.052;8.900;2022-08-11T07:05:53;21.70;1.00
45014;DHT22;30749;53.052;8.900;2022-08-11T07:13:53;22.00;1.00
45014;DHT22;30749;53.052;8.900;2022-08-11T07:16:25;22.20;1.00
45014;DHT22;30749;53.052;8.900;2022-08-11T07:18:51;22.30;1.00
45014;DHT22;30749;53.052;8.900;2022-08-11T07:23:44;22.60;1.00
45014;DHT22;30749;53.052;8.900;2022-08-11T07:26:10;22.70;1.00
45014;DHT22;30749;53.052;8.900;2022-08-11T07:28:40;22.80;1.00
45014;DHT22;30749;53.052;8.900;2022-08-11T07:31:07;22.90;1.00
45014;DHT22;30749;53.052;8.900;2022-08-11T07:33:50;23.00;1.00
45014;DHT22;30749;53.052;8.900;2022-08-11T07:36:15;23.10;1.00
45014;DHT22;30749;53.052;8.900;2022-08-11T07:38:42;23.20;1.00
45014;DHT22;30749;53.052;8.900;2022-08-11T07:41:12;23.30;1.00
45014;DHT22;30749;53.052;8.900;2022-08-11T07:43:39;23.40;1.00
45014;DHT22;30749;53.052;8.900;2022-08-11T07:46:05;23.60;1.00
45014;DHT22;30749;53.052;8.900;2022-08-11T07:48:32;23.70;1.00
45014;DHT22;30749;53.052;8.900;2022-08-11T07:50:59;23.70;1.00
45014;DHT22;30749;53.052;8.900;2022-08-11T07:53:26;23.90;1.00
45014;DHT22;30749;53.052;8.900;2022-08-11T07:55:52;24.00;1.00
45014;DHT22;30749;53.052;8.900;2022-08-11T07:58:19;24.20;1.00
45014;DHT22;30749;53.052;8.900;2022-08-11T08:00:48;24.40;1.00
45014;DHT22;30749;53.052;8.900;2022-08-11T08:03:14;24.60;1.00
45014;DHT22;30749;53.052;8.900;2022-08-11T08:05:40;24.70;1.00
45014;DHT22;30749;53.052;8.900;2022-08-11T08:08:06;24.90;1.00
45014;DHT22;30749;53.052;8.900;2022-08-11T08:10:32;25.10;1.00
45014;DHT22;30749;53.052;8.900;2022-08-11T08:12:58;25.30;1.00
45014;DHT22;30749;53.052;8.900;2022-08-11T08:15:24;25.50;1.00
45014;DHT22;30749;53.052;8.900;2022-08-11T08:17:50;25.60;1.00
45014;DHT22;30749;53.052;8.900;2022-08-11T08:20:17;25.80;1.00
45014;DHT22;30749;53.052;8.900;2022-08-11T08:22:43;26.00;1.00
45014;DHT22;30749;53.052;8.900;2022-08-11T08:25:09;26.10;1.00
45014;DHT22;30749;53.052;8.900;2022-08-11T08:27:35;26.30;1.00
45014;DHT22;30749;53.052;8.900;2022-08-11T08:30:02;26.50;1.00
45014;DHT22;30749;53.052;8.900;2022-08-11T08:32:27;26.70;1.00
45014;DHT22;30749;53.052;8.900;2022-08-11T08:34:54;26.80;1.00
45014;DHT22;30749;53.052;8.900;2022-08-11T08:37:21;27.10;1.00
45014;DHT22;30749;53.052;8.900;2022-08-11T08:39:47;27.20;1.00
45014;DHT22;30749;53.052;8.900;2022-08-11T08:42:16;27.30;1.00
45014;DHT22;30749;53.052;8.900;2022-08-11T08:44:44;27.40;1.00
45014;DHT22;30749;53.052;8.900;2022-08-11T08:47:14;27.60;1.00
45014;DHT22;30749;53.052;8.900;2022-08-11T08:49:47;27.70;1.00
45014;DHT22;30749;53.052;8.900;2022-08-11T08:52:12;28.00;1.00
45014;DHT22;30749;53.052;8.900;2022-08-11T08:54:39;28.30;1.00
45014;DHT22;30749;53.052;8.900;2022-08-11T08:57:06;28.50;1.00
45014;DHT22;30749;53.052;8.900;2022-08-11T08:59:35;28.60;1.00
45014;DHT22;30749;53.052;8.900;2022-08-11T09:02:03;28.70;1.00
45014;DHT22;30749;53.052;8.900;2022-08-11T09:04:29;28.80;1.00
45014;DHT22;30749;53.052;8.900;2022-08-11T09:06:57;29.00;1.00
45014;DHT22;30749;53.052;8.900;2022-08-11T09:09:23;29.10;1.00
45014;DHT22;30749;53.052;8.900;2022-08-11T09:11:49;29.20;1.00
45014;DHT22;30749;53.052;8.900;2022-08-11T09:14:23;29.40;1.00
45014;DHT22;30749;53.052;8.900;2022-08-11T09:16:50;29.70;1.00
45014;DHT22;30749;53.052;8.900;2022-08-11T09:19:17;29.80;1.00
45014;DHT22;30749;53.052;8.900;2022-08-11T09:21:44;30.00;1.00
45014;DHT22;30749;53.052;8.900;2022-08-11T09:24:10;30.10;1.00
45014;DHT22;30749;53.052;8.900;2022-08-11T09:26:37;30.20;1.00
45014;DHT22;30749;53.052;8.900;2022-08-11T09:29:04;30.30;1.00
45014;DHT22;30749;53.052;8.900;2022-08-11T09:31:30;30.50;1.00
45014;DHT22;30749;53.052;8.900;2022-08-11T09:33:55;30.60;1.00
45014;DHT22;30749;53.052;8.900;2022-08-11T09:36:22;30.70;1.00
45014;DHT22;30749;53.052;8.900;2022-08-11T09:38:48;30.90;1.00
45014;DHT22;30749;53.052;8.900;2022-08-11T09:41:14;31.00;1.00
45014;DHT22;30749;53.052;8.900;2022-08-11T09:43:41;31.20;1.00
45014;DHT22;30749;53.052;8.900;2022-08-11T09:46:08;31.40;1.00
45014;DHT22;30749;53.052;8.900;2022-08-11T09:48:35;31.50;1.00
45014;DHT22;30749;53.052;8.900;2022-08-11T09:51:01;31.50;1.00
45014;DHT22;30749;53.052;8.900;2022-08-11T09:53:29;31.70;1.00
45014;DHT22;30749;53.052;8.900;2022-08-11T09:55:55;31.90;1.00
45014;DHT22;30749;53.052;8.900;2022-08-11T09:58:21;32.00;1.00
45014;DHT22;30749;53.052;8.900;2022-08-11T10:00:47;32.10;1.00
45014;DHT22;30749;53.052;8.900;2022-08-11T10:05:45;32.40;1.00
45014;DHT22;30749;53.052;8.900;2022-08-11T10:08:11;32.60;1.00
45014;DHT22;30749;53.052;8.900;2022-08-11T10:10:38;32.60;1.00
45014;DHT22;30749;53.052;8.900;2022-08-11T10:13:05;32.70;1.00
45014;DHT22;30749;53.052;8.900;2022-08-11T10:15:31;33.00;1.00
45014;DHT22;30749;53.052;8.900;2022-08-11T10:17:59;33.00;1.00
45014;DHT22;30749;53.052;8.900;2022-08-11T10:20:26;33.20;1.00
45014;DHT22;30749;53.052;8.900;2022-08-11T10:22:52;33.40;1.00
45014;DHT22;30749;53.052;8.900;2022-08-11T10:25:18;33.50;1.00
45014;DHT22;30749;53.052;8.900;2022-08-11T10:27:44;33.60;1.00
45014;DHT22;30749;53.052;8.900;2022-08-11T10:30:10;33.70;1.00
45014;DHT22;30749;53.052;8.900;2022-08-11T10:32:36;33.90;1.00
45014;DHT22;30749;53.052;8.900;2022-08-11T10:35:02;34.10;1.00
45014;DHT22;30749;53.052;8.900;2022-08-11T10:37:28;34.30;1.00
45014;DHT22;30749;53.052;8.900;2022-08-11T10:39:53;34.40;1.00
45014;DHT22;30749;53.052;8.900;2022-08-11T10:42:20;34.60;1.00
45014;DHT22;30749;53.052;8.900;2022-08-11T10:44:46;34.60;1.00
45014;DHT22;30749;53.052;8.900;2022-08-11T10:47:14;34.80;1.00
45014;DHT22;30749;53.052;8.900;2022-08-11T10:49:40;35.10;1.00
45014;DHT22;30749;53.052;8.900;2022-08-11T10:52:06;34.90;1.00
45014;DHT22;30749;53.052;8.900;2022-08-11T10:54:32;34.90;1.00
45014;DHT22;30749;53.052;8.900;2022-08-11T10:56:57;35.30;1.00
45014;DHT22;30749;53.052;8.900;2022-08-11T10:59:25;35.50;1.00
45014;DHT22;30749;53.052;8.900;2022-08-11T11:01:51;35.80;1.00
45014;DHT22;30749;53.052;8.900;2022-08-11T11:04:19;35.80;1.00
45014;DHT22;30749;53.052;8.900;2022-08-11T11:06:58;35.90;1.00
45014;DHT22;30749;53.052;8.900;2022-08-11T11:09:29;36.20;1.00
45014;DHT22;30749;53.052;8.900;2022-08-11T11:11:56;36.40;1.00
45014;DHT22;30749;53.052;8.900;2022-08-11T11:14:24;36.30;1.00
45014;DHT22;30749;53.052;8.900;2022-08-11T11:16:52;36.70;1.00
45014;DHT22;30749;53.052;8.900;2022-08-11T11:19:20;37.10;1.00
45014;DHT22;30749;53.052;8.900;2022-08-11T11:21:47;37.00;1.00
45014;DHT22;30749;53.052;8.900;2022-08-11T11:29:19;37.10;1.00
45014;DHT22;30749;53.052;8.900;2022-08-11T11:36:53;38.20;1.00
45014;DHT22;30749;53.052;8.900;2022-08-11T11:39:20;38.20;1.00
45014;DHT22;30749;53.052;8.900;2022-08-11T11:41:47;38.70;1.00
45014;DHT22;30749;53.052;8.900;2022-08-11T11:44:13;39.40;1.00
45014;DHT22;30749;53.052;8.900;2022-08-11T11:46:39;39.60;1.00
45014;DHT22;30749;53.052;8.900;2022-08-11T11:49:06;39.70;1.00
45014;DHT22;30749;53.052;8.900;2022-08-11T11:51:32;39.90;1.00
45014;DHT22;30749;53.052;8.900;2022-08-11T11:53:59;40.00;1.00
45014;DHT22;30749;53.052;8.900;2022-08-11T11:56:24;40.10;1.00
45014;DHT22;30749;53.052;8.900;2022-08-11T11:58:50;40.50;1.00
45014;DHT22;30749;53.052;8.900;2022-08-11T12:01:17;40.80;1.00
45014;DHT22;30749;53.052;8.900;2022-08-11T12:03:43;41.30;1.00
45014;DHT22;30749;53.052;8.900;2022-08-11T12:06:10;41.60;1.00
45014;DHT22;30749;53.052;8.900;2022-08-11T12:08:37;41.80;1.00
45014;DHT22;30749;53.052;8.900;2022-08-11T12:11:03;42.30;1.00
45014;DHT22;30749;53.052;8.900;2022-08-11T12:13:30;42.50;1.00
45014;DHT22;30749;53.052;8.900;2022-08-11T12:15:56;42.80;1.00
45014;DHT22;30749;53.052;8.900;2022-08-11T12:18:22;43.10;1.00
45014;DHT22;30749;53.052;8.900;2022-08-11T12:20:48;42.90;1.00
45014;DHT22;30749;53.052;8.900;2022-08-11T12:23:14;43.00;1.00
45014;DHT22;30749;53.052;8.900;2022-08-11T12:25:42;43.30;1.00
45014;DHT22;30749;53.052;8.900;2022-08-11T12:28:09;43.60;1.00
45014;DHT22;30749;53.052;8.900;2022-08-11T12:30:34;43.70;1.00
45014;DHT22;30749;53.052;8.900;2022-08-11T12:33:00;44.20;1.00
45014;DHT22;30749;53.052;8.900;2022-08-11T12:35:26;44.30;1.00
45014;DHT22;30749;53.052;8.900;2022-08-11T12:37:52;44.40;1.00
45014;DHT22;30749;53.052;8.900;2022-08-11T12:40:21;44.60;1.00
45014;DHT22;30749;53.052;8.900;2022-08-11T12:42:47;44.90;1.00
45014;DHT22;30749;53.052;8.900;2022-08-11T12:45:13;44.60;1.00
45014;DHT22;30749;53.052;8.900;2022-08-11T12:47:39;45.00;1.00
45014;DHT22;30749;53.052;8.900;2022-08-11T12:50:05;45.60;1.00
45014;DHT22;30749;53.052;8.900;2022-08-11T12:52:36;46.50;1.00
45014;DHT22;30749;53.052;8.900;2022-08-11T12:57:36;47.40;1.00
45014;DHT22;30749;53.052;8.900;2022-08-11T13:00:03;47.90;1.00
45014;DHT22;30749;53.052;8.900;2022-08-11T13:02:29;48.80;1.00
45014;DHT22;30749;53.052;8.900;2022-08-11T13:04:55;49.00;1.00
45014;DHT22;30749;53.052;8.900;2022-08-11T13:07:22;49.70;1.00
45014;DHT22;30749;53.052;8.900;2022-08-11T13:09:48;50.60;1.00
45014;DHT22;30749;53.052;8.900;2022-08-11T13:12:14;51.20;1.00
45014;DHT22;30749;53.052;8.900;2022-08-11T13:14:40;52.10;1.00
45014;DHT22;30749;53.052;8.900;2022-08-11T13:17:06;52.40;1.00
45014;DHT22;30749;53.052;8.900;2022-08-11T13:19:31;52.80;1.00
45014;DHT22;30749;53.052;8.900;2022-08-11T13:21:58;53.10;1.00
45014;DHT22;30749;53.052;8.900;2022-08-11T13:24:23;53.00;1.00
45014;DHT22;30749;53.052;8.900;2022-08-11T13:26:49;52.40;1.00
45014;DHT22;30749;53.052;8.900;2022-08-11T13:29:16;51.90;1.00
45014;DHT22;30749;53.052;8.900;2022-08-11T13:31:42;51.90;1.00
45014;DHT22;30749;53.052;8.900;2022-08-11T13:34:08;52.20;1.00
45014;DHT22;30749;53.052;8.900;2022-08-11T13:36:34;52.70;1.00
45014;DHT22;30749;53.052;8.900;2022-08-11T13:39:00;52.80;1.00
45014;DHT22;30749;53.052;8.900;2022-08-11T13:41:27;52.80;1.00
45014;DHT22;30749;53.052;8.900;2022-08-11T13:43:54;52.90;1.00
45014;DHT22;30749;53.052;8.900;2022-08-11T13:46:21;52.70;1.00
45014;DHT22;30749;53.052;8.900;2022-08-11T13:48:47;52.00;1.00
45014;DHT22;30749;53.052;8.900;2022-08-11T13:51:13;52.00;1.00
45014;DHT22;30749;53.052;8.900;2022-08-11T13:53:39;51.80;1.00
45014;DHT22;30749;53.052;8.900;2022-08-11T13:56:05;51.80;1.00
45014;DHT22;30749;53.052;8.900;2022-08-11T13:58:30;51.70;1.00
45014;DHT22;30749;53.052;8.900;2022-08-11T14:00:56;51.60;1.00
45014;DHT22;30749;53.052;8.900;2022-08-11T14:03:23;51.70;1.00
45014;DHT22;30749;53.052;8.900;2022-08-11T14:05:50;51.30;1.00
45014;DHT22;30749;53.052;8.900;2022-08-11T14:08:17;50.60;1.00
45014;DHT22;30749;53.052;8.900;2022-08-11T14:10:44;50.60;1.00
45014;DHT22;30749;53.052;8.900;2022-08-11T14:13:13;50.90;1.00
45014;DHT22;30749;53.052;8.900;2022-08-11T14:15:41;50.50;1.00
45014;DHT22;30749;53.052;8.900;2022-08-11T14:18:08;50.30;1.00
45014;DHT22;30749;53.052;8.900;2022-08-11T14:20:39;50.50;1.00
45014;DHT22;30749;53.052;8.900;2022-08-11T14:23:07;50.80;1.00
45014;DHT22;30749;53.052;8.900;2022-08-11T14:25:33;50.80;1.00
45014;DHT22;30749;53.052;8.900;2022-08-11T14:27:59;49.90;1.00
45014;DHT22;30749;53.052;8.900;2022-08-11T14:30:26;49.20;1.00
45014;DHT22;30749;53.052;8.900;2022-08-11T14:32:52;49.00;1.00
45014;DHT22;30749;53.052;8.900;2022-08-11T14:35:18;48.90;1.00
45014;DHT22;30749;53.052;8.900;2022-08-11T14:37:44;48.60;1.00
45014;DHT22;30749;53.052;8.900;2022-08-11T14:40:09;48.50;1.00
45014;DHT22;30749;53.052;8.900;2022-08-11T14:42:35;48.10;1.00
45014;DHT22;30749;53.052;8.900;2022-08-11T14:45:02;47.90;1.00
45014;DHT22;30749;53.052;8.900;2022-08-11T14:47:30;47.90;1.00
45014;DHT22;30749;53.052;8.900;2022-08-11T14:49:56;48.10;1.00
45014;DHT22;30749;53.052;8.900;2022-08-11T14:52:22;47.80;1.00
45014;DHT22;30749;53.052;8.900;2022-08-11T14:54:50;47.40;1.00
45014;DHT22;30749;53.052;8.900;2022-08-11T14:57:16;47.00;1.00
45014;DHT22;30749;53.052;8.900;2022-08-11T14:59:42;46.70;1.00
45014;DHT22;30749;53.052;8.900;2022-08-11T15:02:08;46.40;1.00
45014;DHT22;30749;53.052;8.900;2022-08-11T15:04:35;46.00;1.00
45014;DHT22;30749;53.052;8.900;2022-08-11T15:07:01;45.70;1.00
45014;DHT22;30749;53.052;8.900;2022-08-11T15:09:26;45.60;1.00
45014;DHT22;30749;53.052;8.900;2022-08-11T15:11:52;45.30;1.00
45014;DHT22;30749;53.052;8.900;2022-08-11T15:14:18;44.90;1.00
45014;DHT22;30749;53.052;8.900;2022-08-11T15:16:44;43.60;1.00
45014;DHT22;30749;53.052;8.900;2022-08-11T15:19:10;42.40;1.00
45014;DHT22;30749;53.052;8.900;2022-08-11T15:21:36;41.30;1.00
45014;DHT22;30749;53.052;8.900;2022-08-11T15:24:02;40.30;1.00
45014;DHT22;30749;53.052;8.900;2022-08-11T15:26:30;39.90;1.00
45014;DHT22;30749;53.052;8.900;2022-08-11T15:28:56;39.50;1.00
45014;DHT22;30749;53.052;8.900;2022-08-11T15:31:22;38.90;1.00
45014;DHT22;30749;53.052;8.900;2022-08-11T15:33:50;38.80;1.00
45014;DHT22;30749;53.052;8.900;2022-08-11T15:36:16;38.30;1.00
45014;DHT22;30749;53.052;8.900;2022-08-11T15:38:46;38.00;1.00
45014;DHT22;30749;53.052;8.900;2022-08-11T15:41:14;37.80;1.00
45014;DHT22;30749;53.052;8.900;2022-08-11T15:43:48;37.90;1.00
45014;DHT22;30749;53.052;8.900;2022-08-11T15:46:16;37.70;1.00
45014;DHT22;30749;53.052;8.900;2022-08-11T15:48:44;37.40;1.00
45014;DHT22;30749;53.052;8.900;2022-08-11T15:51:11;37.20;1.00
45014;DHT22;30749;53.052;8.900;2022-08-11T15:56:03;36.90;1.00
45014;DHT22;30749;53.052;8.900;2022-08-11T15:58:32;36.70;1.00
45014;DHT22;30749;53.052;8.900;2022-08-11T16:00:59;36.30;1.00
45014;DHT22;30749;53.052;8.900;2022-08-11T16:03:26;36.30;1.00
45014;DHT22;30749;53.052;8.900;2022-08-11T16:05:53;36.20;1.00
45014;DHT22;30749;53.052;8.900;2022-08-11T16:08:20;36.10;1.00
45014;DHT22;30749;53.052;8.900;2022-08-11T16:10:46;36.10;1.00
45014;DHT22;30749;53.052;8.900;2022-08-11T16:13:14;36.20;1.00
45014;DHT22;30749;53.052;8.900;2022-08-11T16:15:49;36.10;1.00
45014;DHT22;30749;53.052;8.900;2022-08-11T16:18:15;36.10;1.00
45014;DHT22;30749;53.052;8.900;2022-08-11T16:20:43;35.80;1.00
45014;DHT22;30749;53.052;8.900;2022-08-11T16:23:11;35.70;1.00
45014;DHT22;30749;53.052;8.900;2022-08-11T16:25:39;35.70;1.00
45014;DHT22;30749;53.052;8.900;2022-08-11T16:28:07;35.60;1.00
45014;DHT22;30749;53.052;8.900;2022-08-11T16:30:34;35.40;1.00
45014;DHT22;30749;53.052;8.900;2022-08-11T16:33:00;35.30;1.00
45014;DHT22;30749;53.052;8.900;2022-08-11T16:35:26;35.00;1.00
45014;DHT22;30749;53.052;8.900;2022-08-11T16:37:53;34.70;1.00
45014;DHT22;30749;53.052;8.900;2022-08-11T16:40:19;34.50;1.00
45014;DHT22;30749;53.052;8.900;2022-08-11T16:42:45;34.30;1.00
45014;DHT22;30749;53.052;8.900;2022-08-11T16:45:11;34.30;1.00
45014;DHT22;30749;53.052;8.900;2022-08-11T16:47:37;34.00;1.00
45014;DHT22;30749;53.052;8.900;2022-08-11T16:50:03;33.70;1.00
45014;DHT22;30749;53.052;8.900;2022-08-11T16:52:29;33.50;1.00
45014;DHT22;30749;53.052;8.900;2022-08-11T16:54:55;33.40;1.00
45014;DHT22;30749;53.052;8.900;2022-08-11T16:57:24;33.30;1.00
45014;DHT22;30749;53.052;8.900;2022-08-11T16:59:50;33.20;1.00
45014;DHT22;30749;53.052;8.900;2022-08-11T17:02:18;33.10;1.00
45014;DHT22;30749;53.052;8.900;2022-08-11T17:07:10;32.80;1.00
45014;DHT22;30749;53.052;8.900;2022-08-11T17:09:36;32.70;1.00
45014;DHT22;30749;53.052;8.900;2022-08-11T17:12:02;32.60;1.00
45014;DHT22;30749;53.052;8.900;2022-08-11T17:15:02;32.60;1.00
45014;DHT22;30749;53.052;8.900;2022-08-11T17:17:32;32.40;1.00
45014;DHT22;30749;53.052;8.900;2022-08-11T17:20:00;32.30;1.00
45014;DHT22;30749;53.052;8.900;2022-08-11T17:22:25;32.20;1.00
45014;DHT22;30749;53.052;8.900;2022-08-11T17:24:53;32.00;1.00
45014;DHT22;30749;53.052;8.900;2022-08-11T17:27:19;31.70;1.00
45014;DHT22;30749;53.052;8.900;2022-08-11T17:29:53;31.60;1.00
45014;DHT22;30749;53.052;8.900;2022-08-11T17:32:32;31.70;1.00
45014;DHT22;30749;53.052;8.900;2022-08-11T17:35:00;31.70;1.00
45014;DHT22;30749;53.052;8.900;2022-08-11T17:37:27;31.70;1.00
45014;DHT22;30749;53.052;8.900;2022-08-11T17:39:53;31.50;1.00
45014;DHT22;30749;53.052;8.900;2022-08-11T17:42:20;31.50;1.00
45014;DHT22;30749;53.052;8.900;2022-08-11T17:44:47;31.40;1.00
45014;DHT22;30749;53.052;8.900;2022-08-11T17:47:14;31.30;1.00
45014;DHT22;30749;53.052;8.900;2022-08-11T17:49:40;31.20;1.00
45014;DHT22;30749;53.052;8.900;2022-08-11T17:52:06;31.10;1.00
45014;DHT22;30749;53.052;8.900;2022-08-11T17:54:33;31.00;1.00
45014;DHT22;30749;53.052;8.900;2022-08-11T17:56:59;30.90;1.00
45014;DHT22;30749;53.052;8.900;2022-08-11T17:59:25;30.90;1.00
45014;DHT22;30749;53.052;8.900;2022-08-11T18:01:51;30.90;1.00
45014;DHT22;30749;53.052;8.900;2022-08-11T18:04:18;30.90;1.00
45014;DHT22;30749;53.052;8.900;2022-08-11T18:06:45;30.90;1.00
45014;DHT22;30749;53.052;8.900;2022-08-11T18:09:14;30.80;1.00
45014;DHT22;30749;53.052;8.900;2022-08-11T18:11:40;30.70;1.00
45014;DHT22;30749;53.052;8.900;2022-08-11T18:14:06;30.50;1.00
45014;DHT22;30749;53.052;8.900;2022-08-11T18:16:35;30.40;1.00
45014;DHT22;30749;53.052;8.900;2022-08-11T18:19:00;30.40;1.00
45014;DHT22;30749;53.052;8.900;2022-08-11T18:21:26;30.40;1.00
45014;DHT22;30749;53.052;8.900;2022-08-11T18:23:53;30.40;1.00
45014;DHT22;30749;53.052;8.900;2022-08-11T18:26:19;30.40;1.00
45014;DHT22;30749;53.052;8.900;2022-08-11T18:28:49;30.30;1.00
45014;DHT22;30749;53.052;8.900;2022-08-11T18:31:15;30.20;1.00
45014;DHT22;30749;53.052;8.900;2022-08-11T18:33:45;30.00;1.00
45014;DHT22;30749;53.052;8.900;2022-08-11T18:36:14;29.90;1.00
45014;DHT22;30749;53.052;8.900;2022-08-11T18:38:41;29.80;1.00
45014;DHT22;30749;53.052;8.900;2022-08-11T18:41:09;29.80;1.00
45014;DHT22;30749;53.052;8.900;2022-08-11T18:43:36;29.80;1.00
45014;DHT22;30749;53.052;8.900;2022-08-11T18:46:04;29.70;1.00